Time;durP1;ratioP1;P1;durP2;ratioP2;P2;SDS_P1;SDS_P2;PMS_P1;PMS_P2;Temp;Humidity;BMP_temperature;BMP_pressure;BME280_temperature;BME280_humidity;BME280_pressure;Samples;Min_cycle;Max_cycle;Signal;HPM_P1;HPM_P2
2021/05/25 00:02:12;;;;;;;2.40;0.95;;;;;;;8.17;69.60;98597.00;3609673;39;20047;-63
2021/05/25 00:04:39;;;;;;;1.35;0.85;;;;;;;8.18;69.60;98593.38;3609637;39;20312;-63
2021/05/25 00:07:07;;;;;;;1.05;0.85;;;;;;;8.21;69.57;98600.09;3608146;39;20052;-63
2021/05/25 00:09:34;;;;;;;3.60;0.85;;;;;;;8.17;69.34;98599.66;3609453;39;20583;-63
2021/05/25 00:12:01;;;;;;;2.20;0.75;;;;;;;8.16;69.56;98592.72;3609535;39;20048;-63
2021/05/25 00:14:29;;;;;;;2.25;1.10;;;;;;;8.17;69.53;98589.94;3608766;39;20043;-63
2021/05/25 00:16:57;;;;;;;3.60;0.85;;;;;;;8.12;69.57;98584.41;3608900;39;20051;-63
2021/05/25 00:19:25;;;;;;;1.70;0.98;;;;;;;8.08;69.56;98580.50;3608488;39;20047;-63
2021/05/25 00:21:52;;;;;;;2.22;0.85;;;;;;;8.05;69.65;98585.31;3609164;39;20429;-63
2021/05/25 00:24:20;;;;;;;3.90;1.23;;;;;;;8.10;69.89;98590.84;3609008;39;20055;-63
2021/05/25 00:26:47;;;;;;;3.78;0.90;;;;;;;8.14;69.76;98592.09;3609369;39;20077;-63
2021/05/25 00:29:14;;;;;;;3.30;0.98;;;;;;;8.17;69.63;98583.84;3609067;39;20071;-63
2021/05/25 00:31:43;;;;;;;3.15;0.80;;;;;;;8.22;69.68;98589.38;3609335;39;20054;-63
2021/05/25 00:34:10;;;;;;;2.47;0.98;;;;;;;8.26;69.61;98592.47;3609487;39;20083;-63
2021/05/25 00:36:37;;;;;;;3.67;1.38;;;;;;;8.29;69.55;98586.84;3610838;39;20047;-63
2021/05/25 00:39:05;;;;;;;2.95;0.95;;;;;;;8.35;69.40;98597.44;3613338;39;20112;-63
2021/05/25 00:41:32;;;;;;;2.78;1.10;;;;;;;8.42;69.21;98590.47;3610850;39;20040;-64
2021/05/25 00:44:00;;;;;;;2.25;1.00;;;;;;;8.43;69.14;98601.81;3610306;39;20058;-63
2021/05/25 00:46:27;;;;;;;5.70;1.00;;;;;;;8.42;68.74;98592.31;3609586;39;20412;-63
2021/05/25 00:48:56;;;;;;;3.40;0.90;;;;;;;8.43;68.71;98594.75;3608700;39;20047;-63
2021/05/25 00:51:23;;;;;;;2.92;0.98;;;;;;;8.44;68.89;98592.91;3609110;39;20039;-63
2021/05/25 00:53:50;;;;;;;3.17;1.17;;;;;;;8.46;68.48;98588.31;3609385;39;20040;-63
2021/05/25 00:56:18;;;;;;;2.47;1.00;;;;;;;8.40;68.68;98600.38;3607954;39;20118;-63
2021/05/25 00:58:46;;;;;;;2.50;0.70;;;;;;;8.43;68.78;98592.09;3607675;39;20412;-63
2021/05/25 01:01:13;;;;;;;2.00;1.17;;;;;;;8.45;68.54;98594.56;3609090;39;20043;-63
2021/05/25 01:03:40;;;;;;;2.95;1.02;;;;;;;8.53;68.24;98597.09;3608770;39;20054;-62
2021/05/25 01:06:09;;;;;;;3.72;0.80;;;;;;;8.50;68.28;98591.38;3608681;39;20051;-63
2021/05/25 01:08:38;;;;;;;3.08;1.00;;;;;;;8.53;68.39;98594.47;3608695;39;20055;-63
2021/05/25 01:11:06;;;;;;;1.92;0.80;;;;;;;8.51;67.96;98598.28;3608981;39;20047;-63
2021/05/25 01:13:41;;;;;;;2.70;0.95;;;;;;;8.48;67.97;98596.00;3607887;39;20381;-63
2021/05/25 01:16:09;;;;;;;1.58;0.80;;;;;;;8.47;68.26;98597.81;3608659;39;20055;-63
2021/05/25 01:18:36;;;;;;;3.45;0.80;;;;;;;8.47;67.93;98597.81;3608626;39;20049;-63
2021/05/25 01:21:06;;;;;;;3.95;1.08;;;;;;;8.42;68.08;98597.56;3608659;39;20411;-63
2021/05/25 01:23:35;;;;;;;1.88;0.80;;;;;;;8.48;68.00;98598.63;3608688;39;20048;-63
2021/05/25 01:26:03;;;;;;;3.15;0.90;;;;;;;8.49;67.90;98598.47;3608916;39;20047;-63
2021/05/25 01:28:31;;;;;;;2.13;1.00;;;;;;;8.46;67.72;98605.94;3608558;39;20055;-64
2021/05/25 01:30:58;;;;;;;2.85;1.00;;;;;;;8.39;68.04;98609.28;3608565;39;20106;-63
2021/05/25 01:33:29;;;;;;;2.03;0.90;;;;;;;8.40;68.05;98608.25;3609328;39;20074;-63
2021/05/25 01:35:56;;;;;;;3.70;1.38;;;;;;;8.47;67.75;98618.09;3610435;39;20046;-63
2021/05/25 01:38:24;;;;;;;2.22;0.77;;;;;;;8.43;67.71;98622.91;3610258;39;20044;-63
2021/05/25 01:40:56;;;;;;;2.22;0.82;;;;;;;8.33;68.21;98617.91;3610242;39;20048;-63
2021/05/25 01:43:23;;;;;;;4.43;0.82;;;;;;;8.36;67.94;98624.59;3610334;39;20054;-63
2021/05/25 01:45:51;;;;;;;3.55;0.90;;;;;;;8.41;67.80;98619.66;3609370;39;20043;-63
2021/05/25 01:48:18;;;;;;;1.83;0.90;;;;;;;8.42;68.00;98626.53;3610036;39;20050;-63
2021/05/25 01:50:46;;;;;;;3.58;0.85;;;;;;;8.43;67.94;98631.63;3610286;39;20058;-63
2021/05/25 01:53:18;;;;;;;3.17;0.80;;;;;;;8.50;67.61;98628.28;3610438;39;20047;-63
2021/05/25 01:55:47;;;;;;;1.63;0.80;;;;;;;8.48;67.48;98631.06;3610336;39;20592;-63
2021/05/25 01:58:17;;;;;;;2.85;1.02;;;;;;;8.44;67.40;98635.88;3610098;39;20036;-63
2021/05/25 02:00:50;;;;;;;3.80;0.80;;;;;;;8.47;67.16;98634.72;3610473;39;20059;-64
2021/05/25 02:03:18;;;;;;;1.23;0.70;;;;;;;8.52;67.29;98636.78;3610151;39;20048;-64
2021/05/25 02:05:46;;;;;;;2.05;0.95;;;;;;;8.48;67.42;98624.97;3609856;39;20048;-64
2021/05/25 02:08:14;;;;;;;3.95;1.05;;;;;;;8.46;67.27;98633.09;3609960;39;20065;-64
2021/05/25 02:10:44;;;;;;;3.40;0.90;;;;;;;8.45;67.42;98636.72;3610788;39;20262;-64
2021/05/25 02:13:13;;;;;;;3.65;1.25;;;;;;;8.49;67.37;98626.59;3609983;39;20052;-64
2021/05/25 02:15:43;;;;;;;5.13;1.20;;;;;;;8.48;67.24;98630.25;3610288;39;20047;-64
2021/05/25 02:18:13;;;;;;;6.35;0.90;;;;;;;8.42;67.01;98623.91;3609640;39;20051;-64
2021/05/25 02:20:42;;;;;;;4.78;1.38;;;;;;;8.37;67.23;98631.56;3609989;39;20059;-64
2021/05/25 02:23:10;;;;;;;2.60;1.02;;;;;;;8.35;67.39;98630.88;3609994;39;20059;-64
2021/05/25 02:25:38;;;;;;;4.20;1.15;;;;;;;8.37;67.32;98629.72;3609699;39;20058;-64
2021/05/25 02:28:06;;;;;;;4.40;1.00;;;;;;;8.33;67.28;98632.88;3609579;39;20054;-64
2021/05/25 02:30:36;;;;;;;1.15;1.00;;;;;;;8.34;67.28;98637.97;3609970;39;20060;-64
2021/05/25 02:33:06;;;;;;;3.78;0.95;;;;;;;8.35;67.30;98634.31;3609668;39;20412;-64
2021/05/25 02:35:34;;;;;;;2.70;0.80;;;;;;;8.37;67.31;98629.72;3609998;39;20043;-64
2021/05/25 02:38:02;;;;;;;2.40;1.13;;;;;;;8.32;67.29;98641.75;3609413;39;20055;-64
2021/05/25 02:40:30;;;;;;;3.47;1.17;;;;;;;8.28;67.29;98649.19;3609947;39;20047;-64
2021/05/25 02:42:58;;;;;;;5.38;0.90;;;;;;;8.29;67.53;98637.69;3609988;39;20044;-64
2021/05/25 02:45:26;;;;;;;3.00;0.80;;;;;;;8.27;67.72;98642.31;3609825;39;20051;-63
2021/05/25 02:47:53;;;;;;;3.05;1.05;;;;;;;8.30;67.71;98641.13;3609971;39;20055;-63
2021/05/25 02:50:21;;;;;;;2.90;0.88;;;;;;;8.33;67.48;98640.78;3609890;39;20055;-64
2021/05/25 02:52:50;;;;;;;2.80;1.02;;;;;;;8.36;67.24;98641.22;3608991;39;20064;-63
2021/05/25 02:55:19;;;;;;;2.92;0.98;;;;;;;8.37;67.38;98648.16;3610048;39;20044;-63
2021/05/25 02:57:47;;;;;;;2.72;1.05;;;;;;;8.37;67.31;98642.09;3609784;39;20054;-63
2021/05/25 03:00:17;;;;;;;2.55;1.30;;;;;;;8.39;67.12;98643.53;3609614;39;20058;-64
2021/05/25 03:02:45;;;;;;;2.75;1.05;;;;;;;8.37;67.26;98644.72;3609906;39;20373;-64
2021/05/25 03:05:14;;;;;;;2.40;1.10;;;;;;;8.15;67.28;98651.66;3609715;39;20055;-63
2021/05/25 03:07:43;;;;;;;3.92;1.15;;;;;;;8.23;67.48;98654.19;3608512;39;20081;-64
2021/05/25 03:10:13;;;;;;;2.35;0.90;;;;;;;8.25;67.37;98644.31;3609465;39;20400;-64
2021/05/25 03:12:41;;;;;;;3.30;1.20;;;;;;;8.25;67.59;98644.31;3608703;39;20052;-64
2021/05/25 03:15:12;;;;;;;6.45;1.73;;;;;;;8.28;67.31;98651.03;3609617;39;20028;-64
2021/05/25 03:17:39;;;;;;;1.58;0.90;;;;;;;8.27;67.27;98638.88;3609356;39;20051;-64
2021/05/25 03:20:09;;;;;;;2.92;1.02;;;;;;;8.25;67.16;98657.50;3609517;39;20336;-64
2021/05/25 03:22:36;;;;;;;3.67;0.95;;;;;;;8.25;66.99;98662.75;3609474;39;20059;-64
2021/05/25 03:25:08;;;;;;;3.80;1.10;;;;;;;8.26;66.68;98650.41;3609618;39;20052;-65
2021/05/25 03:27:35;;;;;;;3.53;0.70;;;;;;;8.30;66.75;98651.69;3608963;39;20044;-64
2021/05/25 03:30:04;;;;;;;5.18;1.00;;;;;;;8.34;66.71;98647.69;3609614;39;20040;-65
2021/05/25 03:32:31;;;;;;;3.13;1.40;;;;;;;8.30;66.56;98638.50;3611871;39;20087;-64
2021/05/25 03:34:59;;;;;;;2.92;1.40;;;;;;;8.27;66.33;98637.03;3611201;39;20051;-64
2021/05/25 03:37:26;;;;;;;2.05;1.02;;;;;;;8.31;66.45;98630.41;3609448;39;20047;-65
2021/05/25 03:39:53;;;;;;;3.03;1.75;;;;;;;8.29;66.50;98644.78;3609643;39;20384;-65
2021/05/25 03:42:21;;;;;;;2.20;0.98;;;;;;;8.28;66.40;98646.56;3609759;39;20032;-64
2021/05/25 03:44:49;;;;;;;3.92;1.08;;;;;;;8.29;66.23;98655.31;3609655;39;20144;-64
2021/05/25 03:47:18;;;;;;;2.55;1.13;;;;;;;8.29;66.08;98639.50;3609131;39;20048;-64
2021/05/25 03:49:46;;;;;;;4.30;1.35;;;;;;;8.36;66.22;98646.47;3609530;39;20047;-64
2021/05/25 03:52:14;;;;;;;4.57;1.10;;;;;;;8.37;65.66;98635.00;3609266;39;20048;-65
2021/05/25 03:54:47;;;;;;;2.97;1.00;;;;;;;8.31;65.73;98632.22;3609224;39;20052;-64
2021/05/25 03:57:25;;;;;;;2.10;1.08;;;;;;;8.29;65.72;98639.50;3608539;39;20043;-64
2021/05/25 03:59:53;;;;;;;3.25;2.00;;;;;;;8.34;65.87;98640.59;3609563;39;20059;-64
2021/05/25 04:02:20;;;;;;;2.38;1.00;;;;;;;8.40;65.65;98644.34;3609285;39;20436;-64
2021/05/25 04:04:48;;;;;;;7.15;1.30;;;;;;;8.42;65.75;98652.88;3609271;39;20047;-64
2021/05/25 04:07:15;;;;;;;1.65;1.10;;;;;;;8.41;65.26;98651.25;3607791;39;20051;-64
2021/05/25 04:09:42;;;;;;;3.30;1.40;;;;;;;8.38;65.55;98652.44;3609067;39;20043;-65
2021/05/25 04:12:10;;;;;;;3.22;0.90;;;;;;;8.35;65.77;98657.22;3609114;39;20091;-65
2021/05/25 04:14:37;;;;;;;3.10;1.00;;;;;;;8.32;65.84;98663.66;3609411;39;20047;-65
2021/05/25 04:17:05;;;;;;;3.67;1.00;;;;;;;8.38;65.83;98655.06;3609155;39;20410;-64
2021/05/25 04:19:33;;;;;;;1.90;0.85;;;;;;;8.44;65.88;98667.50;3609229;39;20051;-64
2021/05/25 04:22:00;;;;;;;4.90;1.00;;;;;;;8.48;65.63;98669.78;3609320;39;20047;-64
2021/05/25 04:24:27;;;;;;;4.68;1.05;;;;;;;8.52;65.69;98652.59;3608926;39;20043;-65
2021/05/25 04:26:54;;;;;;;2.08;0.93;;;;;;;8.39;65.96;98664.59;3609066;39;20043;-64
2021/05/25 04:29:22;;;;;;;3.80;1.02;;;;;;;8.41;66.29;98654.72;3608747;39;20031;-64
2021/05/25 04:31:49;;;;;;;2.40;1.05;;;;;;;8.42;66.87;98668.69;3609261;39;20043;-64
2021/05/25 04:34:17;;;;;;;2.47;0.90;;;;;;;8.35;67.11;98671.19;3609028;39;20069;-64
2021/05/25 04:36:44;;;;;;;3.47;1.05;;;;;;;8.40;67.28;98674.13;3608221;39;20389;-64
2021/05/25 04:39:12;;;;;;;4.75;1.15;;;;;;;8.44;67.18;98683.28;3609111;39;20035;-64
2021/05/25 04:41:39;;;;;;;2.25;0.80;;;;;;;8.41;67.42;98683.69;3609678;39;20039;-63
2021/05/25 04:44:06;;;;;;;4.25;1.08;;;;;;;8.37;67.61;98689.50;3609325;39;20431;-63
2021/05/25 04:46:34;;;;;;;2.30;0.90;;;;;;;8.30;67.62;98678.00;3608911;39;20071;-63
2021/05/25 04:49:01;;;;;;;2.90;0.75;;;;;;;8.30;67.90;98686.72;3608741;39;20063;-63
2021/05/25 04:51:29;;;;;;;4.28;1.20;;;;;;;8.30;68.26;98678.81;3608953;39;20059;-63
2021/05/25 04:53:57;;;;;;;1.23;0.85;;;;;;;8.36;68.10;98686.00;3609007;39;20047;-63
2021/05/25 04:56:24;;;;;;;3.50;0.90;;;;;;;8.37;67.85;98689.50;3609148;39;20400;-62
2021/05/25 04:58:51;;;;;;;3.13;0.93;;;;;;;8.37;67.69;98692.13;3608798;39;20371;-63
2021/05/25 05:01:18;;;;;;;2.25;0.80;;;;;;;8.39;67.92;98705.94;3608664;39;20036;-62
2021/05/25 05:03:46;;;;;;;1.35;0.82;;;;;;;8.46;67.87;98706.03;3609117;39;20039;-62
2021/05/25 05:06:13;;;;;;;4.00;0.70;;;;;;;8.41;67.95;98709.22;3609053;39;20400;-62
2021/05/25 05:08:43;;;;;;;3.25;0.80;;;;;;;8.46;68.16;98716.56;3610172;39;20297;-62
2021/05/25 05:11:11;;;;;;;1.10;0.70;;;;;;;8.42;68.54;98724.00;3610413;39;20044;-64
2021/05/25 05:13:38;;;;;;;2.40;1.00;;;;;;;8.31;69.11;98705.97;3610083;39;20062;-63
2021/05/25 05:16:06;;;;;;;3.38;1.15;;;;;;;8.31;69.32;98719.97;3610144;39;20063;-64
2021/05/25 05:18:34;;;;;;;1.08;0.93;;;;;;;8.37;69.65;98713.22;3609935;39;20047;-64
2021/05/25 05:21:01;;;;;;;3.80;0.90;;;;;;;8.35;69.52;98729.13;3610251;39;20054;-63
2021/05/25 05:23:28;;;;;;;2.53;1.08;;;;;;;8.35;69.65;98713.34;3610389;39;20051;-63
2021/05/25 05:25:59;;;;;;;2.88;0.93;;;;;;;8.40;69.69;98729.44;3610880;39;20048;-62
2021/05/25 05:28:26;;;;;;;2.25;0.95;;;;;;;8.38;69.76;98728.81;3609984;39;20043;-63
2021/05/25 05:30:54;;;;;;;3.53;0.98;;;;;;;8.34;70.18;98724.88;3610092;39;20048;-63
2021/05/25 05:33:22;;;;;;;1.90;0.80;;;;;;;8.34;70.18;98732.78;3610432;39;20059;-63
2021/05/25 05:35:49;;;;;;;2.25;0.88;;;;;;;8.44;70.39;98740.44;3610424;39;20385;-64
2021/05/25 05:38:17;;;;;;;1.30;0.73;;;;;;;8.39;70.63;98748.06;3611530;39;20047;-63
2021/05/25 05:40:44;;;;;;;4.75;1.00;;;;;;;8.35;70.91;98737.03;3610638;39;20289;-63
2021/05/25 05:43:12;;;;;;;1.15;0.80;;;;;;;8.41;71.20;98732.91;3612421;39;20046;-63
2021/05/25 05:45:40;;;;;;;2.25;0.90;;;;;;;8.37;71.61;98743.00;3612821;39;20035;-63
2021/05/25 05:48:07;;;;;;;2.28;0.90;;;;;;;8.38;71.48;98738.53;3611908;39;20053;-64
2021/05/25 05:50:35;;;;;;;1.25;0.90;;;;;;;8.36;71.85;98749.19;3612626;39;20050;-63
2021/05/25 05:53:02;;;;;;;2.75;1.10;;;;;;;8.34;72.11;98743.31;3612958;39;20108;-63
2021/05/25 05:55:30;;;;;;;1.40;0.90;;;;;;;8.39;71.95;98750.69;3612657;39;20104;-63
2021/05/25 05:57:58;;;;;;;2.22;0.90;;;;;;;8.35;71.82;98752.84;3613111;39;20027;-63
2021/05/25 06:00:26;;;;;;;3.75;1.20;;;;;;;8.28;72.38;98743.19;3613397;39;20066;-65
2021/05/25 06:02:53;;;;;;;1.30;0.93;;;;;;;8.29;72.34;98756.22;3613409;39;20048;-64
2021/05/25 06:05:21;;;;;;;1.35;0.70;;;;;;;8.35;72.37;98755.47;3612353;39;20039;-63
2021/05/25 06:07:48;;;;;;;2.30;0.77;;;;;;;8.39;72.58;98754.16;3611069;39;20428;-63
2021/05/25 06:10:16;;;;;;;2.38;1.13;;;;;;;8.39;71.91;98762.06;3611658;39;20051;-62
2021/05/25 06:12:44;;;;;;;2.15;0.80;;;;;;;8.33;72.07;98752.22;3610246;39;20137;-64
2021/05/25 06:15:12;;;;;;;1.67;0.95;;;;;;;8.39;72.12;98764.69;3611195;39;20105;-63
2021/05/25 06:17:41;;;;;;;6.38;3.33;;;;;;;8.37;72.60;98763.25;3610373;39;20032;-63
2021/05/25 06:20:09;;;;;;;2.15;0.70;;;;;;;8.40;72.41;98760.22;3610381;39;20047;-63
2021/05/25 06:22:36;;;;;;;1.65;0.90;;;;;;;8.50;72.44;98758.19;3610195;39;20085;-63
2021/05/25 06:25:06;;;;;;;1.85;0.70;;;;;;;8.57;72.61;98768.78;3610332;39;20477;-62
2021/05/25 06:27:34;;;;;;;1.38;0.98;;;;;;;8.51;72.89;98772.16;3610522;39;20292;-63
2021/05/25 06:30:01;;;;;;;3.47;1.00;;;;;;;8.52;72.67;98779.88;3609869;39;20370;-63
2021/05/25 06:32:28;;;;;;;1.10;0.68;;;;;;;8.45;72.44;98778.97;3608677;39;20051;-64
2021/05/25 06:34:56;;;;;;;5.10;0.90;;;;;;;8.47;72.81;98776.16;3610121;39;20409;-64
2021/05/25 06:37:24;;;;;;;1.48;0.60;;;;;;;8.43;73.19;98776.50;3609894;39;20059;-64
2021/05/25 06:39:51;;;;;;;1.80;0.80;;;;;;;8.50;72.98;98781.06;3609616;39;20047;-64
2021/05/25 06:42:18;;;;;;;1.20;0.73;;;;;;;8.48;73.13;98791.78;3608758;39;20062;-64
2021/05/25 06:44:46;;;;;;;2.00;0.88;;;;;;;8.43;73.11;98791.50;3609815;39;20132;-64
2021/05/25 06:47:13;;;;;;;1.63;0.65;;;;;;;8.50;73.15;98796.88;3609690;39;20055;-63
2021/05/25 06:49:40;;;;;;;0.82;0.73;;;;;;;8.42;72.92;98798.59;3609937;39;20109;-63
2021/05/25 06:52:10;;;;;;;1.40;0.60;;;;;;;8.43;73.18;98789.69;3609277;39;20047;-64
2021/05/25 06:54:38;;;;;;;1.73;0.90;;;;;;;8.48;73.31;98783.88;3609771;39;20047;-64
2021/05/25 06:57:06;;;;;;;0.70;0.70;;;;;;;8.43;73.61;98802.84;3609547;39;20052;-63
2021/05/25 06:59:36;;;;;;;1.25;0.90;;;;;;;8.44;73.38;98801.84;3609674;39;20043;-64
2021/05/25 07:02:04;;;;;;;0.68;0.50;;;;;;;8.44;73.54;98812.38;3609679;39;20047;-64
2021/05/25 07:04:31;;;;;;;0.75;0.55;;;;;;;8.54;73.85;98812.16;3612591;39;20074;-64
2021/05/25 07:06:59;;;;;;;2.35;0.65;;;;;;;8.65;73.57;98817.00;3612997;39;20059;-64
2021/05/25 07:09:27;;;;;;;2.05;0.90;;;;;;;8.74;73.49;98814.28;3612908;39;20059;-64
2021/05/25 07:11:54;;;;;;;1.75;0.70;;;;;;;8.79;73.12;98819.81;3612600;39;20039;-65
2021/05/25 07:14:21;;;;;;;1.33;1.00;;;;;;;8.85;73.21;98824.34;3612577;39;20043;-63
2021/05/25 07:16:49;;;;;;;2.88;1.30;;;;;;;8.78;72.77;98818.19;3612053;39;20043;-65
2021/05/25 07:19:16;;;;;;;1.38;1.05;;;;;;;8.84;72.63;98825.34;3612681;39;20320;-64
2021/05/25 07:21:43;;;;;;;3.63;0.80;;;;;;;8.81;72.53;98826.53;3611521;39;20289;-64
2021/05/25 07:24:11;;;;;;;1.63;0.73;;;;;;;8.89;72.91;98838.81;3611847;39;20047;-64
2021/05/25 07:26:40;;;;;;;0.70;0.70;;;;;;;9.03;72.39;98832.72;3612141;39;20051;-64
2021/05/25 07:29:07;;;;;;;2.00;0.75;;;;;;;9.12;72.62;98831.63;3612179;39;20044;-64
2021/05/25 07:31:35;;;;;;;2.70;1.83;;;;;;;9.16;72.23;98826.81;3611795;39;20039;-64
2021/05/25 07:34:02;;;;;;;2.42;1.90;;;;;;;9.20;71.72;98861.56;3609392;39;20321;-64
2021/05/25 07:36:30;;;;;;;0.90;0.65;;;;;;;9.17;71.46;98839.81;3609275;39;20050;-64
2021/05/25 07:38:57;;;;;;;1.77;0.90;;;;;;;9.25;71.57;98838.09;3609555;39;20059;-63
2021/05/25 07:41:25;;;;;;;1.77;0.70;;;;;;;9.24;71.58;98831.19;3609727;39;20052;-63
2021/05/25 07:43:54;;;;;;;0.95;0.70;;;;;;;9.14;71.39;98834.06;3609836;39;20049;-65
2021/05/25 07:46:23;;;;;;;1.05;0.63;;;;;;;9.15;71.42;98836.56;3609499;39;20047;-64
2021/05/25 07:48:51;;;;;;;2.65;0.60;;;;;;;9.05;70.97;98848.34;3609191;39;20047;-64
2021/05/25 07:51:19;;;;;;;1.60;0.63;;;;;;;8.94;71.66;98854.91;3609172;39;20381;-64
2021/05/25 07:53:47;;;;;;;0.95;0.60;;;;;;;8.81;72.25;98860.78;3609865;39;20054;-63
2021/05/25 07:56:14;;;;;;;1.77;0.70;;;;;;;8.82;72.40;98865.09;3609361;39;20047;-64
2021/05/25 07:58:42;;;;;;;1.52;1.10;;;;;;;8.78;72.53;98865.63;3609555;39;20039;-63
2021/05/25 08:01:10;;;;;;;1.90;1.05;;;;;;;8.78;72.41;98876.97;3609845;39;20043;-63
2021/05/25 08:03:38;;;;;;;1.65;1.05;;;;;;;8.79;72.60;98881.25;3609126;39;20048;-63
2021/05/25 08:06:06;;;;;;;2.47;1.20;;;;;;;8.71;71.86;98875.25;3609182;39;20051;-63
2021/05/25 08:08:33;;;;;;;1.15;0.70;;;;;;;8.55;72.72;98882.28;3608224;39;20055;-63
2021/05/25 08:11:01;;;;;;;1.40;1.00;;;;;;;8.54;72.65;98885.91;3609282;39;20040;-64
2021/05/25 08:13:28;;;;;;;1.60;0.70;;;;;;;8.61;72.47;98896.56;3609325;39;20047;-63
2021/05/25 08:15:56;;;;;;;1.60;0.77;;;;;;;8.78;72.19;98884.91;3609317;39;20047;-62
2021/05/25 08:18:38;;;;;;;1.92;0.90;;;;;;;8.84;71.77;98901.81;3609117;39;20086;-63
2021/05/25 08:21:06;;;;;;;3.10;0.70;;;;;;;8.87;71.90;98899.63;3609306;39;20043;-64
2021/05/25 08:23:33;;;;;;;2.85;2.55;;;;;;;9.06;71.74;98903.56;3609449;39;20048;-64
2021/05/25 08:26:04;;;;;;;3.50;0.98;;;;;;;9.10;70.98;98904.84;3610609;39;20049;-63
2021/05/25 08:28:31;;;;;;;1.08;0.73;;;;;;;9.23;71.11;98903.41;3612364;39;20027;-63
2021/05/25 08:30:59;;;;;;;0.90;0.77;;;;;;;9.30;71.07;98912.22;3613265;39;20040;-65
2021/05/25 08:33:27;;;;;;;0.85;0.80;;;;;;;9.52;71.00;98915.78;3614891;39;20039;-64
2021/05/25 08:35:55;;;;;;;1.40;0.80;;;;;;;9.59;71.24;98921.94;3614564;39;20044;-63
2021/05/25 08:38:23;;;;;;;2.67;1.05;;;;;;;9.64;70.79;98925.69;3614967;39;20285;-63
2021/05/25 08:40:52;;;;;;;1.30;1.17;;;;;;;9.66;71.16;98933.41;3613718;39;20058;-62
2021/05/25 08:43:21;;;;;;;3.45;0.90;;;;;;;9.49;71.22;98943.34;3613645;39;20048;-63
2021/05/25 08:45:49;;;;;;;1.30;0.95;;;;;;;9.51;71.60;98940.50;3612292;39;20047;-64
2021/05/25 08:48:16;;;;;;;3.28;1.20;;;;;;;9.48;71.17;98954.91;3610405;39;20297;-64
2021/05/25 08:50:53;;;;;;;1.20;1.00;;;;;;;9.42;70.90;98959.06;3610972;39;20044;-63
2021/05/25 08:53:21;;;;;;;2.22;1.10;;;;;;;9.42;71.34;98955.63;3612703;39;20051;-63
2021/05/25 08:55:50;;;;;;;4.70;0.93;;;;;;;9.37;71.38;98964.06;3611177;39;20052;-63
2021/05/25 08:58:18;;;;;;;4.50;0.88;;;;;;;9.39;71.61;98962.09;3613390;39;20093;-63
2021/05/25 09:00:45;;;;;;;2.03;1.45;;;;;;;9.56;72.34;98962.72;3610835;39;20420;-63
2021/05/25 09:03:15;;;;;;;5.05;1.55;;;;;;;9.69;71.87;98962.09;3613261;39;20054;-64
2021/05/25 09:05:49;;;;;;;4.68;1.38;;;;;;;9.87;71.98;98959.06;3610097;39;20040;-64
2021/05/25 09:08:17;;;;;;;2.67;1.50;;;;;;;9.92;70.95;98965.44;3607720;39;20044;-63
2021/05/25 09:10:46;;;;;;;2.25;1.30;;;;;;;10.05;70.30;98975.34;3608685;39;20063;-64
2021/05/25 09:13:16;;;;;;;2.70;1.20;;;;;;;10.04;71.10;98978.16;3608532;39;20457;-64
2021/05/25 09:15:46;;;;;;;3.88;2.10;;;;;;;10.12;71.13;98984.19;3608926;39;20046;-64
2021/05/25 09:18:15;;;;;;;2.38;1.17;;;;;;;10.01;70.39;98974.06;3608842;39;20332;-65
2021/05/25 09:20:46;;;;;;;2.28;1.40;;;;;;;9.87;70.63;98985.47;3609003;39;20062;-64
2021/05/25 09:23:15;;;;;;;6.07;4.00;;;;;;;9.76;70.89;98984.13;3609040;39;20044;-64
2021/05/25 09:25:54;;;;;;;18.05;9.95;;;;;;;9.74;71.33;98985.28;3609007;39;20052;-65
2021/05/25 09:28:24;;;;;;;13.43;5.35;;;;;;;9.69;71.64;98988.47;3616737;39;20043;-64
2021/05/25 09:30:52;;;;;;;5.18;1.75;;;;;;;9.89;71.24;98994.03;3608273;39;20632;-64
2021/05/25 09:33:26;;;;;;;;;;;;;;;9.93;70.94;98988.19;3610100;39;20028;-64
2021/05/25 09:35:53;;;;;;;7.20;2.88;;;;;;;10.10;70.82;98986.16;3609248;39;19932;-65
2021/05/25 09:38:22;;;;;;;5.20;2.38;;;;;;;10.37;70.83;98982.06;3608328;39;20051;-64
2021/05/25 09:40:51;;;;;;;5.95;2.20;;;;;;;10.50;69.50;98999.06;3608587;39;20412;-65
2021/05/25 09:43:21;;;;;;;3.50;1.60;;;;;;;10.68;69.35;98996.78;3608871;39;20047;-64
2021/05/25 09:45:57;;;;;;;3.15;1.67;;;;;;;10.94;69.03;98987.47;3608685;39;20048;-64
2021/05/25 09:48:25;;;;;;;3.17;1.58;;;;;;;11.14;68.29;98985.78;3608003;39;20120;-63
2021/05/25 09:50:54;;;;;;;3.65;1.65;;;;;;;11.46;68.60;98984.41;3608248;39;20044;-64
2021/05/25 09:53:23;;;;;;;3.38;1.70;;;;;;;11.45;68.04;98989.91;3608396;39;20560;-64
2021/05/25 09:55:53;;;;;;;4.28;1.73;;;;;;;11.46;68.19;98995.00;3608735;39;20047;-63
2021/05/25 09:58:23;;;;;;;7.28;1.50;;;;;;;11.47;67.34;98993.16;3609585;39;20059;-64
2021/05/25 10:00:50;;;;;;;2.45;1.35;;;;;;;11.12;66.91;99001.88;3610069;39;20397;-64
2021/05/25 10:03:20;;;;;;;6.75;2.00;;;;;;;11.06;67.30;99007.94;3610657;39;20043;-64
2021/05/25 10:05:50;;;;;;;7.10;1.52;;;;;;;11.00;66.92;99010.53;3610369;39;20332;-65
2021/05/25 10:08:20;;;;;;;4.57;1.73;;;;;;;11.03;67.19;99013.59;3610520;39;20051;-63
2021/05/25 10:10:48;;;;;;;5.00;1.90;;;;;;;11.22;66.10;99003.38;3610727;39;20040;-65
2021/05/25 10:13:18;;;;;;;3.83;1.52;;;;;;;11.51;65.83;99013.78;3610624;39;20044;-64
2021/05/25 10:15:47;;;;;;;6.20;2.25;;;;;;;11.85;65.47;99018.28;3610110;39;20076;-63
2021/05/25 10:18:32;;;;;;;4.93;1.73;;;;;;;12.18;64.84;99017.63;3609789;39;20046;-63
2021/05/25 10:21:01;;;;;;;2.60;1.50;;;;;;;12.37;63.85;99027.50;3610124;39;20070;-63
2021/05/25 10:23:32;;;;;;;4.82;1.50;;;;;;;12.52;63.69;99027.34;3609926;39;20047;-63
2021/05/25 10:26:03;;;;;;;1.92;1.23;;;;;;;12.62;61.65;99051.66;3610026;39;20043;-63
2021/05/25 10:28:31;;;;;;;2.63;0.90;;;;;;;12.39;60.02;99030.75;3609822;39;20059;-63
2021/05/25 10:30:59;;;;;;;2.22;1.20;;;;;;;12.39;60.95;99033.41;3609835;39;20052;-63
2021/05/25 10:33:36;;;;;;;3.03;1.42;;;;;;;12.60;60.24;99048.38;3609898;39;20345;-64
2021/05/25 10:36:09;;;;;;;1.98;1.05;;;;;;;12.54;60.89;99054.50;3609242;39;20092;-63
2021/05/25 10:38:56;;;;;;;1.02;0.80;;;;;;;12.52;59.13;99055.69;3609694;39;20346;-63
2021/05/25 10:41:27;;;;;;;4.05;1.40;;;;;;;12.47;59.44;99043.03;3609134;39;20061;-64
2021/05/25 10:43:56;;;;;;;5.07;1.35;;;;;;;12.42;60.28;99045.47;3610237;39;20028;-63
2021/05/25 10:46:27;;;;;;;3.58;1.10;;;;;;;12.52;59.30;99045.91;3609719;39;20047;-64
2021/05/25 10:49:09;;;;;;;3.25;1.40;;;;;;;12.62;59.69;99040.22;3609671;39;20145;-64
2021/05/25 10:52:16;;;;;;;4.35;1.30;;;;;;;12.48;60.36;99054.44;3609935;39;20400;-63
2021/05/25 10:54:58;;;;;;;3.20;1.40;;;;;;;12.19;62.65;99053.72;3609416;39;20168;-63
2021/05/25 10:57:37;;;;;;;5.28;1.80;;;;;;;11.89;63.23;99064.56;3609032;39;20054;-63
2021/05/25 11:00:09;;;;;;;3.25;1.50;;;;;;;11.82;64.03;99063.69;3609987;39;20412;-63
2021/05/25 11:02:48;;;;;;;4.32;1.80;;;;;;;12.05;64.38;99060.78;3609052;39;20152;-63
2021/05/25 11:05:46;;;;;;;9.02;2.08;;;;;;;12.20;64.75;99063.31;3610018;39;20039;-63
2021/05/25 11:08:31;;;;;;;5.65;1.85;;;;;;;12.21;64.69;99058.84;3609204;39;20052;-64
2021/05/25 11:11:14;;;;;;;5.15;2.17;;;;;;;12.35;65.98;99052.56;3608790;39;20483;-64
2021/05/25 11:13:45;;;;;;;7.18;2.90;;;;;;;12.52;66.00;99051.19;3603089;39;20040;-64
2021/05/25 11:16:16;;;;;;;7.30;2.47;;;;;;;12.68;66.36;99054.53;3609500;39;20043;-64
2021/05/25 11:18:46;;;;;;;4.80;2.60;;;;;;;12.80;66.24;99050.25;3609413;39;20075;-63
2021/05/25 11:21:48;;;;;;;8.02;2.60;;;;;;;12.86;65.15;99044.97;3609495;39;20051;-64
2021/05/25 11:24:30;;;;;;;4.95;1.90;;;;;;;12.85;63.20;99027.41;3609683;39;20411;-64
2021/05/25 11:27:00;;;;;;;5.47;1.70;;;;;;;12.86;61.82;99031.72;3609538;39;20320;-64
2021/05/25 11:29:29;;;;;;;6.40;1.88;;;;;;;12.74;61.40;99041.28;3608867;39;20055;-64
2021/05/25 11:32:01;;;;;;;3.25;1.60;;;;;;;12.72;60.17;99032.69;3609516;39;20391;-64
2021/05/25 11:34:28;;;;;;;5.68;1.80;;;;;;;12.79;59.29;99028.22;3609536;39;20047;-64
2021/05/25 11:36:58;;;;;;;6.43;1.80;;;;;;;12.92;58.63;99019.47;3609144;39;20039;-64
2021/05/25 11:39:26;;;;;;;5.00;1.80;;;;;;;12.88;59.41;99018.25;3609783;39;20316;-64
2021/05/25 11:41:54;;;;;;;5.60;2.13;;;;;;;13.11;58.85;99020.53;3609609;39;20097;-64
2021/05/25 11:44:30;;;;;;;4.93;1.85;;;;;;;13.14;58.52;99031.56;3609724;39;20040;-64
2021/05/25 11:47:03;;;;;;;9.68;2.53;;;;;;;13.42;57.74;99017.25;3610735;39;20043;-64
2021/05/25 11:49:33;;;;;;;4.70;1.88;;;;;;;13.86;55.48;99018.44;3612055;39;20131;-64
2021/05/25 11:52:15;;;;;;;6.10;1.73;;;;;;;14.03;53.82;99019.59;3610060;39;20040;-64